Portada
METAR-TAF:

METAR-TAF

Aeropuertos :

Aeropuerto Internacional de Brunéi

Brunéi, Brunéi

latitud: 04-56N, longitud: 114-56E, altitud: 22 m

Observación

El informe se hizo hace 18 minutos, a las 19:30 UTC
Viento 3 kt del suroeste
Temperatura 26°C
Humedad 94%
Presión 1010 hPa
Visibilidad: 8000 m
Nubes dispersas a una altura de 1400 ft
Cielo nuboso a una altura de 30000 ft

METAR: WBSB 181930Z 22003KT 8000 SCT014 BKN300 26/25 Q1010 NOSIG

Hora: 03:48 (19:48 UTC)

Pronóstico

El informe se hizo hace 2 horas y 48 minutos, a las 17:00 UTC
Pronóstico válido del 18 a las 18 UTC al 20 a las 00 UTC
Viento 4 kt del noreste
Visibilidad: 8000 m
Escasas nubes a una altura de 1400 ft
Evolucionando progresivamente
del 19 a las 02 UTC al 19 a las 04 UTC
Viento 10 kt del norte
Nubes dispersas a una altura de 1600 ft
Escasas nubes a una altura de 1700 ft, Cumulonimbus.

TAF: WBSB 181700Z 1818/2000 04004KT 8000 FEW014 BECMG 1902/1904 35010KT SCT016 FEW017CB

Observaciones y pronósticos meteorológicos de más de 4000 aeropuertos (mensajes METAR y TAF).

Los puntos amarillos y rojos representan las estaciones disponibles.

Ponga el ratón en el punto deseado para ver el nombre de la estación.

Haga clic para ver las observaciones y los pronósticos meteorológicos.

Para cambiar el mapa : haga clic en los botones verdes con una cruz de color negro para hacer un zoom, en el botón verde con un guión para alejar o en las flechas verdes para mapas adyacentes.


METAR-TAF: